F/V Jeremi Simon — FHAF — position and weather

sailwx.info

Track history (hours):
 
Tides and Currents Weather Stations Pressure Air Temp Water Temp Dewpoint Dewpoint Depression Visibility Wind Speed Wind Dir Waves Ship Positions

F/V Jeremi Simon

Last reported at 2015-May-24 15:23 UTC. Time now 2015-May-25 01:26 UTC.
Position N 47°10' W 004°21'.

Length 20 m.

Type: Other ship. MMSI: 227415000.

Date/timePositionNaut miles runAvg speedWind from/ knotsBaromVisibWave heightAir tempDewpointWater temp
2015-May-24 15:23N 47°10' W 004°21'9 9.8
2015-May-24 14:30N 47°07' W 004°09'9 9.6
2015-May-24 13:33N 47°05' W 003°56'10 9.6
2015-May-24 12:33N 47°02' W 003°43'30 9.7
2015-May-24 09:24N 46°54' W 002°60'21 9.3
2015-May-24 07:10N 46°48' W 002°31'6 9.2
2015-May-24 06:33N 46°46' W 002°23'10 9.3
2015-May-24 05:27N 46°43' W 002°09'8 8.8
2015-May-24 04:30N 46°42' W 001°57'0 0.0
2015-May-22 10:31N 46°42' W 001°57'0 0.0
2015-May-22 08:25N 46°42' W 001°57'0 0.0
2015-May-22 07:05N 46°42' W 001°57'0 0.0
2015-May-22 06:33N 46°42' W 001°57'0 0.0
2015-May-21 19:33N 46°42' W 001°57'0 0.0
2015-May-21 18:33N 46°42' W 001°57'0 0.0
2015-May-21 14:17N 46°42' W 001°57'0 0.0
2015-May-21 12:05N 46°42' W 001°57'0 0.0
2015-May-21 10:33N 46°42' W 001°57'0 0.0
2015-May-21 09:33N 46°42' W 001°57'0 0.0
2015-May-21 06:33N 46°42' W 001°57'0 0.0
2015-May-20 08:17N 46°42' W 001°57'0 0.0
2015-May-20 05:24N 46°42' W 001°56'2 2.8
2015-May-20 04:33N 46°40' W 001°59'1 1.1
2015-May-20 03:33N 46°40' W 002°00'1 0.9
2015-May-20 02:33N 46°41' W 002°01'1 0.9
2015-May-20 01:33N 46°41' W 002°03'8 6.2
2015-May-20 00:20N 46°44' W 002°13'24 0.6
2015-May-18 08:26N 46°42' W 002°48'3 2.8
2015-May-18 07:17N 46°41' W 002°52'7 7.8
2015-May-18 06:26N 46°37' W 002°60'1 1.5
2015-May-18 05:29N 46°36' W 003°02'24 8.1
2015-May-18 02:29N 46°39' W 002°26'11 9.4
2015-May-18 01:18N 46°40' W 002°10'5 2.1
2015-May-17 23:04N 46°40' W 002°03'0 0.3
2015-May-17 22:29N 46°40' W 002°03'  
2015-May-15 04:33N 46°27' W 002°16'8 8.5
2015-May-15 03:33N 46°30' W 002°05'5 4.7
2015-May-15 02:33N 46°30' W 001°58'2 1.9
2015-May-15 01:33N 46°30' W 001°55'1 1.1
2015-May-15 00:33N 46°30' W 001°56'1 1.4
2015-May-14 23:33N 46°31' W 001°58'1 1.4
2015-May-14 22:33N 46°30' W 002°00'1 1.3
2015-May-14 21:33N 46°30' W 002°02'1 1.4
2015-May-14 20:33N 46°30' W 002°04'1 1.3
2015-May-14 19:33N 46°30' W 002°06'1 1.1
2015-May-14 18:33N 46°29' W 002°08'1 0.8
2015-May-14 17:33N 46°29' W 002°09'0 0.5
2015-May-14 16:33N 46°29' W 002°09'0 0.4
2015-May-14 15:33N 46°29' W 002°10'  
Track history (hours):
 
Tides and Currents Weather Stations Pressure Air Temp Water Temp Dewpoint Dewpoint Depression Visibility Wind Speed Wind Dir Waves Ship Positions

F/V Jeremi Simon

Last reported at 2015-May-24 15:23 UTC. Time now 2015-May-25 01:26 UTC.
Position N 47°10' W 004°21'.

Length 20 m.

Type: Other ship. MMSI: 227415000.

Date/timePositionNaut miles runAvg speedWind from/ knotsBaromVisibWave heightAir tempDewpointWater temp
2015-May-24 15:23N 47°10' W 004°21'9 9.8
2015-May-24 14:30N 47°07' W 004°09'9 9.6
2015-May-24 13:33N 47°05' W 003°56'10 9.6
2015-May-24 12:33N 47°02' W 003°43'30 9.7
2015-May-24 09:24N 46°54' W 002°60'21 9.3
2015-May-24 07:10N 46°48' W 002°31'6 9.2
2015-May-24 06:33N 46°46' W 002°23'10 9.3
2015-May-24 05:27N 46°43' W 002°09'8 8.8
2015-May-24 04:30N 46°42' W 001°57'0 0.0
2015-May-22 10:31N 46°42' W 001°57'0 0.0
2015-May-22 08:25N 46°42' W 001°57'0 0.0
2015-May-22 07:05N 46°42' W 001°57'0 0.0
2015-May-22 06:33N 46°42' W 001°57'0 0.0
2015-May-21 19:33N 46°42' W 001°57'0 0.0
2015-May-21 18:33N 46°42' W 001°57'0 0.0
2015-May-21 14:17N 46°42' W 001°57'0 0.0
2015-May-21 12:05N 46°42' W 001°57'0 0.0
2015-May-21 10:33N 46°42' W 001°57'0 0.0
2015-May-21 09:33N 46°42' W 001°57'0 0.0
2015-May-21 06:33N 46°42' W 001°57'0 0.0
2015-May-20 08:17N 46°42' W 001°57'0 0.0
2015-May-20 05:24N 46°42' W 001°56'2 2.8
2015-May-20 04:33N 46°40' W 001°59'1 1.1
2015-May-20 03:33N 46°40' W 002°00'1 0.9
2015-May-20 02:33N 46°41' W 002°01'1 0.9
2015-May-20 01:33N 46°41' W 002°03'8 6.2
2015-May-20 00:20N 46°44' W 002°13'24 0.6
2015-May-18 08:26N 46°42' W 002°48'3 2.8
2015-May-18 07:17N 46°41' W 002°52'7 7.8
2015-May-18 06:26N 46°37' W 002°60'1 1.5
2015-May-18 05:29N 46°36' W 003°02'24 8.1
2015-May-18 02:29N 46°39' W 002°26'11 9.4
2015-May-18 01:18N 46°40' W 002°10'5 2.1
2015-May-17 23:04N 46°40' W 002°03'0 0.3
2015-May-17 22:29N 46°40' W 002°03'  
2015-May-15 04:33N 46°27' W 002°16'8 8.5
2015-May-15 03:33N 46°30' W 002°05'5 4.7
2015-May-15 02:33N 46°30' W 001°58'2 1.9
2015-May-15 01:33N 46°30' W 001°55'1 1.1
2015-May-15 00:33N 46°30' W 001°56'1 1.4
2015-May-14 23:33N 46°31' W 001°58'1 1.4
2015-May-14 22:33N 46°30' W 002°00'1 1.3
2015-May-14 21:33N 46°30' W 002°02'1 1.4
2015-May-14 20:33N 46°30' W 002°04'1 1.3
2015-May-14 19:33N 46°30' W 002°06'1 1.1
2015-May-14 18:33N 46°29' W 002°08'1 0.8
2015-May-14 17:33N 46°29' W 002°09'0 0.5
2015-May-14 16:33N 46°29' W 002°09'0 0.4
2015-May-14 15:33N 46°29' W 002°10'  

Dump ship's entire track history